createdAt,value
2022-08-12T00:00:09.466Z,27.3600
2022-08-12T00:00:20.527Z,27.3600
2022-08-12T00:00:31.569Z,27.3600
2022-08-12T00:00:42.656Z,27.3600
2022-08-12T00:00:53.720Z,27.3600
2022-08-12T00:01:04.774Z,27.3600
2022-08-12T00:01:15.829Z,27.3700
2022-08-12T00:02:02.965Z,27.3700
2022-08-12T00:02:04.133Z,27.3500
2022-08-12T00:02:05.578Z,27.3300
2022-08-12T00:02:17.158Z,27.3200
2022-08-12T00:02:28.354Z,27.3100
2022-08-12T00:02:39.743Z,27.3200
2022-08-12T00:02:51.214Z,27.3300
2022-08-12T00:03:02.352Z,27.3300
2022-08-12T00:03:13.434Z,27.3400
2022-08-12T00:03:29.291Z,27.3400
2022-08-12T00:03:40.484Z,27.3300
2022-08-12T00:03:51.618Z,27.3200
2022-08-12T00:04:02.647Z,27.3200
2022-08-12T00:04:13.711Z,27.3300
2022-08-12T00:04:24.794Z,27.3200
2022-08-12T00:04:35.867Z,27.3300
2022-08-12T00:04:47.070Z,27.3300
2022-08-12T00:04:58.137Z,27.3400
2022-08-12T00:05:09.207Z,27.3400
2022-08-12T00:05:20.274Z,27.3400
2022-08-12T00:05:31.353Z,27.3400
2022-08-12T00:06:04.292Z,27.3400
2022-08-12T00:06:04.832Z,27.3400
2022-08-12T00:06:16.480Z,27.3200
2022-08-12T00:06:27.529Z,27.3100
2022-08-12T00:06:38.597Z,27.3200
2022-08-12T00:06:49.635Z,27.3300
2022-08-12T00:07:00.733Z,27.3400
2022-08-12T00:07:11.797Z,27.3400
2022-08-12T00:07:22.888Z,27.3400
2022-08-12T00:07:33.947Z,27.3400
2022-08-12T00:07:45.018Z,27.3400
2022-08-12T00:07:56.086Z,27.3500
2022-08-12T00:08:07.164Z,27.3500
2022-08-12T00:08:33.009Z,27.3500
2022-08-12T00:08:36.736Z,27.3500
2022-08-12T00:08:48.143Z,27.3200
2022-08-12T00:08:59.255Z,27.3100
2022-08-12T00:09:10.328Z,27.3200
2022-08-12T00:09:26.133Z,27.3200
2022-08-12T00:09:37.516Z,27.3300
2022-08-12T00:09:49.360Z,27.3100
2022-08-12T00:10:00.449Z,27.3200
2022-08-12T00:10:11.518Z,27.3300
2022-08-12T00:10:22.698Z,27.3300
2022-08-12T00:10:33.774Z,27.3200
2022-08-12T00:10:44.857Z,27.3300
2022-08-12T00:10:55.939Z,27.3300
2022-08-12T00:11:09.842Z,27.3300
2022-08-12T00:11:24.134Z,27.3300
2022-08-12T00:11:35.211Z,27.3100
2022-08-12T00:11:46.288Z,27.3100
2022-08-12T00:11:57.368Z,27.3100
2022-08-12T00:12:08.430Z,27.3200
2022-08-12T00:12:19.457Z,27.3300
2022-08-12T00:12:30.587Z,27.3300
2022-08-12T00:12:41.698Z,27.3300
2022-08-12T00:12:52.782Z,27.3300
2022-08-12T00:13:03.859Z,27.3300
2022-08-12T00:13:14.925Z,27.3300
2022-08-12T00:13:26.226Z,27.3300
2022-08-12T00:13:37.272Z,27.3300
2022-08-12T00:13:48.325Z,27.3300
2022-08-12T00:13:59.409Z,27.3200
2022-08-12T00:14:10.476Z,27.3200
2022-08-12T00:14:21.545Z,27.3200
2022-08-12T00:14:32.602Z,27.3200
2022-08-12T00:14:43.664Z,27.3300
2022-08-12T00:14:54.715Z,27.3300
2022-08-12T00:15:05.776Z,27.3200
2022-08-12T00:15:16.843Z,27.3200
2022-08-12T00:15:28.060Z,27.3300
2022-08-12T00:15:39.130Z,27.3300
2022-08-12T00:15:50.193Z,27.3300
2022-08-12T00:16:01.951Z,27.3300
2022-08-12T00:16:13.047Z,27.3300
2022-08-12T00:16:24.121Z,27.3300
2022-08-12T00:16:35.168Z,27.3400
2022-08-12T00:16:46.233Z,27.3400
2022-08-12T00:16:57.425Z,27.3400
2022-08-12T00:17:08.513Z,27.3300
2022-08-12T00:17:19.577Z,27.3300
2022-08-12T00:17:30.853Z,27.3300
2022-08-12T00:17:41.926Z,27.3300
2022-08-12T00:17:52.998Z,27.3200
2022-08-12T00:18:04.044Z,27.3200
2022-08-12T00:18:15.124Z,27.3200
2022-08-12T00:18:26.192Z,27.3200
2022-08-12T00:18:37.272Z,27.3100
2022-08-12T00:18:48.351Z,27.3200
2022-08-12T00:18:59.831Z,27.3200
2022-08-12T00:19:10.921Z,27.3100
2022-08-12T00:19:21.989Z,27.3100
2022-08-12T00:19:33.810Z,27.3100
2022-08-12T00:19:44.846Z,27.3000
2022-08-12T00:19:55.898Z,27.3000
2022-08-12T00:20:06.983Z,27.3100
2022-08-12T00:20:18.084Z,27.3000
2022-08-12T00:20:29.836Z,27.3000
2022-08-12T00:20:41.163Z,27.2900
2022-08-12T00:20:52.254Z,27.2900
2022-08-12T00:21:03.429Z,27.2800
2022-08-12T00:21:14.999Z,27.2800
2022-08-12T00:21:26.691Z,27.2800
2022-08-12T00:21:38.373Z,27.2900
2022-08-12T00:21:49.560Z,27.2800
2022-08-12T00:22:00.640Z,27.2800
2022-08-12T00:22:11.706Z,27.2800
2022-08-12T00:22:22.779Z,27.2800
2022-08-12T00:22:34.024Z,27.2800
2022-08-12T00:22:45.052Z,27.2800
2022-08-12T00:22:59.814Z,27.2800
2022-08-12T00:23:11.298Z,27.2800
2022-08-12T00:23:22.499Z,27.2600
2022-08-12T00:23:33.732Z,27.2700
2022-08-12T00:23:44.813Z,27.2700
2022-08-12T00:23:55.883Z,27.2700
2022-08-12T00:24:08.271Z,27.2700
2022-08-12T00:24:20.389Z,27.2700
2022-08-12T00:24:31.486Z,27.2600
2022-08-12T00:24:42.554Z,27.2700
2022-08-12T00:24:53.632Z,27.2600
2022-08-12T00:25:04.839Z,27.2600
2022-08-12T00:25:15.910Z,27.2500
2022-08-12T00:26:02.777Z,27.2500
2022-08-12T00:26:05.872Z,27.2500
2022-08-12T00:26:20.731Z,27.2300
2022-08-12T00:26:22.542Z,27.2200
2022-08-12T00:26:34.859Z,27.2100
2022-08-12T00:26:45.926Z,27.2000
2022-08-12T00:26:56.991Z,27.2100
2022-08-12T00:27:08.048Z,27.2200
2022-08-12T00:27:19.172Z,27.2200
2022-08-12T00:27:44.243Z,27.2300
2022-08-12T00:27:47.229Z,27.2300
2022-08-12T00:27:58.290Z,27.2100
2022-08-12T00:28:09.389Z,27.2100
2022-08-12T00:28:20.452Z,27.2200
2022-08-12T00:28:31.519Z,27.2300
2022-08-12T00:28:42.566Z,27.2400
2022-08-12T00:28:53.761Z,27.2400
2022-08-12T00:29:05.268Z,27.2500
2022-08-12T00:29:16.340Z,27.2500
2022-08-12T00:29:27.623Z,27.2500
2022-08-12T00:29:38.691Z,27.2500
2022-08-12T00:29:49.747Z,27.2500
2022-08-12T00:30:00.833Z,27.2500
2022-08-12T00:30:11.907Z,27.2600
2022-08-12T00:30:22.975Z,27.2600
2022-08-12T00:30:34.035Z,27.2600
2022-08-12T00:30:45.117Z,27.2600
2022-08-12T00:30:56.185Z,27.2600
2022-08-12T00:31:07.256Z,27.2600
2022-08-12T00:31:18.335Z,27.2600
2022-08-12T00:31:29.703Z,27.2600
2022-08-12T00:31:40.746Z,27.2600
2022-08-12T00:31:51.829Z,27.2500
2022-08-12T00:32:02.898Z,27.2500
2022-08-12T00:32:35.325Z,27.2500
2022-08-12T00:32:35.496Z,27.2400
2022-08-12T00:32:51.777Z,27.2100
2022-08-12T00:33:04.586Z,27.2000
2022-08-12T00:33:15.781Z,27.1900
2022-08-12T00:33:26.965Z,27.2000
2022-08-12T00:33:52.564Z,27.2100
2022-08-12T00:34:00.812Z,27.2000
2022-08-12T00:34:12.814Z,27.1900
2022-08-12T00:34:23.887Z,27.1800
2022-08-12T00:34:35.018Z,27.1900
2022-08-12T00:34:46.091Z,27.1900
2022-08-12T00:34:59.599Z,27.1900
2022-08-12T00:35:12.077Z,27.1900
2022-08-12T00:35:26.030Z,27.1900
2022-08-12T00:35:40.476Z,27.2000
2022-08-12T00:35:51.728Z,27.1900
2022-08-12T00:36:02.815Z,27.1900
2022-08-12T00:36:32.246Z,27.1900
2022-08-12T00:36:35.143Z,27.1900
2022-08-12T00:36:48.869Z,27.1800
2022-08-12T00:37:13.009Z,27.1800
2022-08-12T00:37:18.466Z,27.1800
2022-08-12T00:37:29.500Z,27.1700
2022-08-12T00:37:40.603Z,27.1800
2022-08-12T00:37:51.633Z,27.1900
2022-08-12T00:38:02.689Z,27.2000
2022-08-12T00:38:13.770Z,27.2100
2022-08-12T00:38:24.832Z,27.2100
2022-08-12T00:38:36.019Z,27.2200
2022-08-12T00:38:47.069Z,27.2300
2022-08-12T00:38:58.133Z,27.2300
2022-08-12T00:39:09.199Z,27.2300
2022-08-12T00:39:20.305Z,27.2200
2022-08-12T00:39:31.431Z,27.2200
2022-08-12T00:39:42.676Z,27.2200
2022-08-12T00:39:53.768Z,27.2200
2022-08-12T00:40:11.377Z,27.2200
2022-08-12T00:40:21.800Z,27.2200
2022-08-12T00:40:32.880Z,27.2000
2022-08-12T00:40:43.940Z,27.2000
2022-08-12T00:40:54.996Z,27.2100
2022-08-12T00:41:06.170Z,27.2100
2022-08-12T00:41:17.225Z,27.2100
2022-08-12T00:41:28.288Z,27.2200
2022-08-12T00:41:39.356Z,27.2100
2022-08-12T00:41:50.413Z,27.2100
2022-08-12T00:42:01.485Z,27.2200
2022-08-12T00:42:12.576Z,27.2200
2022-08-12T00:42:23.635Z,27.2200
2022-08-12T00:42:34.737Z,27.2200
2022-08-12T00:42:45.832Z,27.2300
2022-08-12T00:42:56.893Z,27.2300
2022-08-12T00:43:07.954Z,27.2300
2022-08-12T00:43:19.008Z,27.2300
2022-08-12T00:43:30.079Z,27.2300
2022-08-12T00:43:41.132Z,27.2400
2022-08-12T00:43:56.132Z,27.2400
2022-08-12T00:44:07.371Z,27.2400
2022-08-12T00:44:18.434Z,27.2300
2022-08-12T00:44:33.437Z,27.2300
2022-08-12T00:44:45.317Z,27.2200
2022-08-12T00:44:59.498Z,27.2200
2022-08-12T00:45:10.584Z,27.2100
2022-08-12T00:45:21.643Z,27.2200
2022-08-12T00:45:32.712Z,27.2200
2022-08-12T00:45:43.789Z,27.2300
2022-08-12T00:45:54.859Z,27.2300
2022-08-12T00:46:05.918Z,27.2300
2022-08-12T00:46:16.986Z,27.2200
2022-08-12T00:46:28.185Z,27.2200
2022-08-12T00:46:39.260Z,27.2200
2022-08-12T00:46:50.322Z,27.2200
2022-08-12T00:47:01.542Z,27.2200
2022-08-12T00:47:24.592Z,27.2200
2022-08-12T00:47:29.594Z,27.2100
2022-08-12T00:47:40.644Z,27.1900
2022-08-12T00:47:51.699Z,27.1900
2022-08-12T00:48:02.770Z,27.2000
2022-08-12T00:48:13.843Z,27.2000
2022-08-12T00:48:24.920Z,27.2000
2022-08-12T00:48:35.994Z,27.2000
2022-08-12T00:48:47.047Z,27.2100
2022-08-12T00:48:58.114Z,27.2100
2022-08-12T00:49:09.177Z,27.2100
2022-08-12T00:49:20.255Z,27.2100
2022-08-12T00:49:31.499Z,27.2100
2022-08-12T00:49:42.570Z,27.2000
2022-08-12T00:49:59.587Z,27.2000
2022-08-12T00:50:10.660Z,27.1700
2022-08-12T00:50:21.716Z,27.1600
2022-08-12T00:50:32.913Z,27.1700
2022-08-12T00:50:43.984Z,27.1700
2022-08-12T00:50:55.033Z,27.1800
2022-08-12T00:51:06.388Z,27.1800
2022-08-12T00:51:17.693Z,27.1900
2022-08-12T00:51:28.759Z,27.1900
2022-08-12T00:51:39.823Z,27.1900
2022-08-12T00:51:50.943Z,27.1900
2022-08-12T00:52:04.303Z,27.1900
2022-08-12T00:52:15.378Z,27.1800
2022-08-12T00:52:26.447Z,27.1900
2022-08-12T00:52:37.505Z,27.1900
2022-08-12T00:52:48.599Z,27.1900
2022-08-12T00:52:59.648Z,27.1900
2022-08-12T00:53:10.710Z,27.1900
2022-08-12T00:53:21.751Z,27.1900
2022-08-12T00:53:32.840Z,27.1900
2022-08-12T00:53:43.888Z,27.1900
2022-08-12T00:53:54.974Z,27.1900
2022-08-12T00:54:06.189Z,27.1900
2022-08-12T00:54:17.271Z,27.1900
2022-08-12T00:54:30.609Z,27.1900
2022-08-12T00:54:43.431Z,27.1800
2022-08-12T00:54:54.518Z,27.1700
2022-08-12T00:55:05.702Z,27.1800
2022-08-12T00:55:16.768Z,27.1800
2022-08-12T00:55:27.842Z,27.1800
2022-08-12T00:55:38.914Z,27.1800
2022-08-12T00:55:49.983Z,27.1900
2022-08-12T00:56:01.050Z,27.1900
2022-08-12T00:56:12.099Z,27.1900
2022-08-12T00:56:23.182Z,27.2000
2022-08-12T00:56:34.258Z,27.2000
2022-08-12T00:56:45.330Z,27.2000
2022-08-12T00:56:56.408Z,27.2000
2022-08-12T00:57:07.616Z,27.2000
2022-08-12T00:57:18.677Z,27.1900
2022-08-12T00:57:29.728Z,27.1900
2022-08-12T00:57:40.799Z,27.1900
2022-08-12T00:57:51.906Z,27.1900
2022-08-12T00:58:02.956Z,27.1900
2022-08-12T00:58:14.019Z,27.1900
2022-08-12T00:58:25.079Z,27.1800
2022-08-12T00:58:36.164Z,27.1800
2022-08-12T00:58:47.240Z,27.1800
2022-08-12T00:58:58.637Z,27.1800
2022-08-12T00:59:09.725Z,27.1800
2022-08-12T00:59:20.792Z,27.1700
2022-08-12T00:59:31.854Z,27.1700
2022-08-12T00:59:42.952Z,27.1700
2022-08-12T00:59:54.051Z,27.1600
2022-08-12T01:00:05.128Z,27.1700
2022-08-12T01:00:16.222Z,27.1700
2022-08-12T01:00:27.460Z,27.1700
2022-08-12T01:00:38.525Z,27.1700
2022-08-12T01:00:49.581Z,27.1600
2022-08-12T01:01:00.722Z,27.1600
2022-08-12T01:01:11.913Z,27.1600
2022-08-12T01:01:23.026Z,27.1600
2022-08-12T01:02:02.369Z,27.1600
2022-08-12T01:02:10.386Z,27.1600
2022-08-12T01:02:12.202Z,27.1400
2022-08-12T01:02:23.680Z,27.1100
2022-08-12T01:02:34.812Z,27.1000
2022-08-12T01:02:45.853Z,27.1100
2022-08-12T01:02:56.935Z,27.1300
2022-08-12T01:03:08.000Z,27.1400
2022-08-12T01:03:19.042Z,27.1400
2022-08-12T01:03:30.112Z,27.1400
2022-08-12T01:03:41.185Z,27.1400
2022-08-12T01:03:52.253Z,27.1400
2022-08-12T01:04:05.692Z,27.1500
2022-08-12T01:04:16.755Z,27.1400
2022-08-12T01:04:27.815Z,27.1400
2022-08-12T01:04:39.934Z,27.1400
2022-08-12T01:04:50.999Z,27.1400
2022-08-12T01:05:02.156Z,27.1400
2022-08-12T01:05:13.245Z,27.1500
2022-08-12T01:05:24.361Z,27.1500
2022-08-12T01:05:35.426Z,27.1500
2022-08-12T01:05:46.509Z,27.1500
2022-08-12T01:05:57.560Z,27.1600
2022-08-12T01:06:08.637Z,27.1600
2022-08-12T01:06:19.709Z,27.1600
2022-08-12T01:06:30.780Z,27.1600
2022-08-12T01:06:41.852Z,27.1600
2022-08-12T01:06:53.593Z,27.1600
2022-08-12T01:07:05.254Z,27.1600
2022-08-12T01:07:16.319Z,27.1600
2022-08-12T01:07:27.397Z,27.1600
2022-08-12T01:07:38.448Z,27.1600
2022-08-12T01:07:49.519Z,27.1600
2022-08-12T01:08:00.585Z,27.1600
2022-08-12T01:08:11.642Z,27.1600
2022-08-12T01:08:22.713Z,27.1600
2022-08-12T01:08:33.788Z,27.1600
2022-08-12T01:08:44.863Z,27.1600
2022-08-12T01:08:55.939Z,27.1600
2022-08-12T01:09:07.169Z,27.1600
2022-08-12T01:09:18.212Z,27.1600
2022-08-12T01:09:29.295Z,27.1600
2022-08-12T01:09:40.341Z,27.1700
2022-08-12T01:09:51.406Z,27.1700
2022-08-12T01:10:02.486Z,27.1700
2022-08-12T01:10:13.561Z,27.1700
2022-08-12T01:10:27.532Z,27.1700
2022-08-12T01:10:41.615Z,27.1600
2022-08-12T01:10:52.686Z,27.1400
2022-08-12T01:11:03.752Z,27.1400
2022-08-12T01:11:14.812Z,27.1500
2022-08-12T01:11:25.895Z,27.1500
2022-08-12T01:11:36.972Z,27.1600
2022-08-12T01:11:48.072Z,27.1600
2022-08-12T01:11:59.140Z,27.1600
2022-08-12T01:12:10.187Z,27.1600
2022-08-12T01:12:21.258Z,27.1700
2022-08-12T01:12:32.325Z,27.1700
2022-08-12T01:12:43.386Z,27.1600
2022-08-12T01:12:54.446Z,27.1700
2022-08-12T01:13:19.281Z,27.1600
2022-08-12T01:13:28.376Z,27.1400
2022-08-12T01:13:39.438Z,27.1300
2022-08-12T01:13:50.508Z,27.1300
2022-08-12T01:14:01.572Z,27.1400
2022-08-12T01:14:12.611Z,27.1500
2022-08-12T01:14:23.679Z,27.1600
2022-08-12T01:14:34.763Z,27.1600
2022-08-12T01:14:45.829Z,27.1600
2022-08-12T01:14:56.892Z,27.1600
2022-08-12T01:15:07.977Z,27.1500
2022-08-12T01:15:19.046Z,27.1500
2022-08-12T01:15:30.421Z,27.1600
2022-08-12T01:15:41.498Z,27.1600
2022-08-12T01:15:52.566Z,27.1600
2022-08-12T01:16:03.620Z,27.1600
2022-08-12T01:16:14.686Z,27.1600
2022-08-12T01:16:25.768Z,27.1600
2022-08-12T01:16:36.831Z,27.1600
2022-08-12T01:16:47.906Z,27.1600
2022-08-12T01:17:00.268Z,27.1600
2022-08-12T01:17:11.340Z,27.1500
2022-08-12T01:17:22.404Z,27.1500
2022-08-12T01:17:33.460Z,27.1600
2022-08-12T01:17:44.531Z,27.1600
2022-08-12T01:17:55.595Z,27.1500
2022-08-12T01:18:06.667Z,27.1500
2022-08-12T01:18:17.860Z,27.1500
2022-08-12T01:18:28.927Z,27.1500
2022-08-12T01:18:40.005Z,27.1400
2022-08-12T01:18:51.083Z,27.1300
2022-08-12T01:19:02.257Z,27.1300
2022-08-12T01:19:13.334Z,27.1200
2022-08-12T01:19:26.368Z,27.1200
2022-08-12T01:19:37.470Z,27.1100
2022-08-12T01:19:48.742Z,27.1100
2022-08-12T01:19:59.805Z,27.1100
2022-08-12T01:20:10.849Z,27.1100
2022-08-12T01:20:21.928Z,27.1200
2022-08-12T01:20:33.178Z,27.1200
2022-08-12T01:20:45.084Z,27.1200
2022-08-12T01:20:56.164Z,27.1100
2022-08-12T01:21:07.229Z,27.1100
2022-08-12T01:21:18.423Z,27.1100
2022-08-12T01:21:29.489Z,27.1100
2022-08-12T01:21:40.559Z,27.1000
2022-08-12T01:21:51.625Z,27.0900
2022-08-12T01:22:02.698Z,27.0900
2022-08-12T01:22:13.745Z,27.0900
2022-08-12T01:22:24.809Z,27.0900
2022-08-12T01:22:35.970Z,27.1000
2022-08-12T01:22:47.040Z,27.1000
2022-08-12T01:22:58.103Z,27.1000
2022-08-12T01:23:09.170Z,27.1000
2022-08-12T01:23:20.245Z,27.1000
2022-08-12T01:23:31.279Z,27.1000
2022-08-12T01:23:42.360Z,27.1000
2022-08-12T01:23:53.438Z,27.1000
2022-08-12T01:24:29.549Z,27.1000
2022-08-12T01:24:30.117Z,27.1000
2022-08-12T01:24:38.443Z,27.0800
2022-08-12T01:24:50.623Z,27.0700
2022-08-12T01:25:01.684Z,27.0700
2022-08-12T01:25:12.788Z,27.0800
2022-08-12T01:25:23.856Z,27.0900
2022-08-12T01:25:37.380Z,27.1000
2022-08-12T01:25:56.197Z,27.1000
2022-08-12T01:26:07.828Z,27.0900
2022-08-12T01:26:18.899Z,27.0700
2022-08-12T01:26:29.962Z,27.0800
2022-08-12T01:26:41.019Z,27.0900
2022-08-12T01:26:52.088Z,27.0900
2022-08-12T01:27:03.152Z,27.0900
2022-08-12T01:27:18.462Z,27.1000
2022-08-12T01:27:29.542Z,27.0800
2022-08-12T01:27:40.589Z,27.0900
2022-08-12T01:27:51.649Z,27.1000
2022-08-12T01:28:02.719Z,27.1000
2022-08-12T01:28:13.794Z,27.1000
2022-08-12T01:28:24.890Z,27.1000
2022-08-12T01:28:35.964Z,27.1000
2022-08-12T01:28:47.039Z,27.1000
2022-08-12T01:29:01.176Z,27.1000
2022-08-12T01:29:12.241Z,27.0900
2022-08-12T01:29:23.314Z,27.0900
2022-08-12T01:29:35.419Z,27.0900
2022-08-12T01:29:46.482Z,27.0700
2022-08-12T01:29:57.569Z,27.0700
2022-08-12T01:30:08.638Z,27.0700
2022-08-12T01:30:19.720Z,27.0700
2022-08-12T01:30:30.793Z,27.0800
2022-08-12T01:30:41.900Z,27.0800
2022-08-12T01:30:52.969Z,27.0900
2022-08-12T01:31:04.034Z,27.0900
2022-08-12T01:31:16.494Z,27.0900
2022-08-12T01:31:27.738Z,27.1000
2022-08-12T01:31:38.809Z,27.0900
2022-08-12T01:31:49.863Z,27.0900
2022-08-12T01:32:00.932Z,27.1000
2022-08-12T01:32:12.007Z,27.0900
2022-08-12T01:32:23.063Z,27.0900
2022-08-12T01:32:34.115Z,27.0900
2022-08-12T01:32:45.167Z,27.0900
2022-08-12T01:32:56.243Z,27.0900
2022-08-12T01:33:07.988Z,27.0800
2022-08-12T01:33:19.041Z,27.0800
2022-08-12T01:33:30.128Z,27.0800
2022-08-12T01:33:41.216Z,27.0800
2022-08-12T01:33:52.288Z,27.0800
2022-08-12T01:34:03.388Z,27.0800
2022-08-12T01:34:35.527Z,27.0800
2022-08-12T01:34:36.679Z,27.0800
2022-08-12T01:34:48.549Z,27.0700
2022-08-12T01:34:59.619Z,27.0500
2022-08-12T01:35:10.692Z,27.0600
2022-08-12T01:35:21.903Z,27.0700
2022-08-12T01:35:32.981Z,27.0800
2022-08-12T01:35:44.071Z,27.0800
2022-08-12T01:36:08.355Z,27.0800
2022-08-12T01:36:18.012Z,27.0600
2022-08-12T01:36:29.089Z,27.0500
2022-08-12T01:36:40.150Z,27.0600
2022-08-12T01:36:51.355Z,27.0700
2022-08-12T01:37:02.404Z,27.0800
2022-08-12T01:37:13.477Z,27.0900
2022-08-12T01:37:24.533Z,27.0900
2022-08-12T01:37:35.858Z,27.0900
2022-08-12T01:37:46.933Z,27.0900
2022-08-12T01:37:58.010Z,27.0900
2022-08-12T01:38:09.088Z,27.0900
2022-08-12T01:38:20.153Z,27.0900
2022-08-12T01:38:37.113Z,27.0900
2022-08-12T01:38:48.202Z,27.0700
2022-08-12T01:38:59.273Z,27.0700
2022-08-12T01:39:10.392Z,27.0700
2022-08-12T01:39:21.472Z,27.0800
2022-08-12T01:39:32.578Z,27.0800
2022-08-12T01:40:32.029Z,27.0800
2022-08-12T01:40:33.193Z,27.0600
2022-08-12T01:40:35.324Z,27.0800
2022-08-12T01:40:38.154Z,27.0400
2022-08-12T01:40:50.475Z,27.0300
2022-08-12T01:41:01.633Z,27.0200
2022-08-12T01:41:12.736Z,27.0400
2022-08-12T01:41:23.897Z,27.0500
2022-08-12T01:41:34.958Z,27.0500
2022-08-12T01:41:51.500Z,27.0600
2022-08-12T01:42:02.958Z,27.0600
2022-08-12T01:42:13.999Z,27.0400
2022-08-12T01:42:25.050Z,27.0500
2022-08-12T01:42:36.159Z,27.0500
2022-08-12T01:42:47.242Z,27.0600
2022-08-12T01:42:58.317Z,27.0600
2022-08-12T01:43:09.381Z,27.0700
2022-08-12T01:43:20.456Z,27.0700
2022-08-12T01:43:31.530Z,27.0800
2022-08-12T01:43:42.592Z,27.0800
2022-08-12T01:43:53.679Z,27.0900
2022-08-12T01:44:04.746Z,27.0900
2022-08-12T01:44:15.946Z,27.0900
2022-08-12T01:44:31.782Z,27.0900
2022-08-12T01:44:42.859Z,27.0700
2022-08-12T01:44:53.926Z,27.0800
2022-08-12T01:45:04.994Z,27.0800
2022-08-12T01:45:16.069Z,27.0800
2022-08-12T01:45:27.126Z,27.0800
2022-08-12T01:45:43.345Z,27.0800
2022-08-12T01:45:57.635Z,27.0800
2022-08-12T01:46:08.802Z,27.0500
2022-08-12T01:46:19.863Z,27.0400
2022-08-12T01:46:30.931Z,27.0500
2022-08-12T01:46:41.998Z,27.0500
2022-08-12T01:46:53.046Z,27.0600
2022-08-12T01:47:04.105Z,27.0600
2022-08-12T01:47:15.176Z,27.0600
2022-08-12T01:47:26.256Z,27.0600
2022-08-12T01:47:37.293Z,27.0600
2022-08-12T01:47:48.368Z,27.0700
2022-08-12T01:47:59.428Z,27.0600
2022-08-12T01:48:10.501Z,27.0600
2022-08-12T01:48:21.566Z,27.0600
2022-08-12T01:48:32.636Z,27.0500
2022-08-12T01:48:43.706Z,27.0500
2022-08-12T01:48:54.771Z,27.0500
2022-08-12T01:49:05.836Z,27.0500
2022-08-12T01:49:16.918Z,27.0500
2022-08-12T01:49:33.890Z,27.0500
2022-08-12T01:49:44.966Z,27.0300
2022-08-12T01:49:56.036Z,27.0300
2022-08-12T01:50:07.195Z,27.0400
2022-08-12T01:50:18.288Z,27.0400
2022-08-12T01:50:29.337Z,27.0500
2022-08-12T01:50:43.204Z,27.0500
2022-08-12T01:50:54.609Z,27.0400
2022-08-12T01:51:11.613Z,27.0400
2022-08-12T01:52:15.045Z,27.0200
2022-08-12T01:52:21.381Z,27.0100
2022-08-12T01:52:21.656Z,27.0000
2022-08-12T01:52:22.309Z,27.0000
2022-08-12T01:52:33.718Z,27.0000
2022-08-12T01:52:44.794Z,27.0000
2022-08-12T01:52:55.884Z,27.0200
2022-08-12T01:53:06.957Z,27.0300
2022-08-12T01:53:18.024Z,27.0400
2022-08-12T01:53:29.114Z,27.0400
2022-08-12T01:53:50.320Z,27.0400
2022-08-12T01:54:03.040Z,27.0300
2022-08-12T01:54:14.131Z,27.0100
2022-08-12T01:54:25.491Z,27.0100
2022-08-12T01:54:36.545Z,27.0200
2022-08-12T01:54:47.606Z,27.0300
2022-08-12T01:54:58.669Z,27.0300
2022-08-12T01:55:09.749Z,27.0400
2022-08-12T01:55:20.807Z,27.0400
2022-08-12T01:55:31.867Z,27.0400
2022-08-12T01:55:42.936Z,27.0400
2022-08-12T01:55:53.984Z,27.0500
2022-08-12T01:56:05.054Z,27.0500
2022-08-12T01:56:16.168Z,27.0500
2022-08-12T01:56:27.376Z,27.0400
2022-08-12T01:56:38.432Z,27.0300
2022-08-12T01:56:49.496Z,27.0300
2022-08-12T01:57:00.580Z,27.0300
2022-08-12T01:57:11.655Z,27.0200
2022-08-12T01:57:57.681Z,27.0200
2022-08-12T01:57:57.741Z,27.0100
2022-08-12T01:57:59.617Z,26.9900
2022-08-12T01:58:11.517Z,26.9800
2022-08-12T01:58:22.563Z,26.9700
2022-08-12T01:58:33.630Z,26.9800
2022-08-12T01:58:44.686Z,26.9800
2022-08-12T01:58:55.766Z,26.9800
2022-08-12T01:59:06.846Z,26.9900
2022-08-12T01:59:23.826Z,26.9900
2022-08-12T01:59:34.902Z,26.9700
2022-08-12T01:59:45.965Z,26.9800
2022-08-12T01:59:57.046Z,26.9900
2022-08-12T02:00:08.108Z,27.0000
2022-08-12T02:00:19.184Z,27.0000
2022-08-12T02:00:36.017Z,27.0100
2022-08-12T02:00:55.495Z,27.0100
2022-08-12T02:01:04.262Z,26.9900
2022-08-12T02:01:15.422Z,26.9800
2022-08-12T02:01:26.518Z,26.9900
2022-08-12T02:01:37.704Z,27.0000
2022-08-12T02:01:48.916Z,27.0100
2022-08-12T02:01:59.973Z,27.0100
2022-08-12T02:02:11.049Z,27.0100
2022-08-12T02:02:22.123Z,27.0200
2022-08-12T02:02:33.201Z,27.0200
2022-08-12T02:02:44.249Z,27.0200
2022-08-12T02:02:55.313Z,27.0200
2022-08-12T02:03:06.389Z,27.0200
2022-08-12T02:03:17.442Z,27.0200
2022-08-12T02:03:28.486Z,27.0200
2022-08-12T02:03:39.564Z,27.0300
2022-08-12T02:03:50.632Z,27.0300
2022-08-12T02:04:01.692Z,27.0300
2022-08-12T02:04:12.762Z,27.0300
2022-08-12T02:04:23.826Z,27.0300
2022-08-12T02:04:34.909Z,27.0300
2022-08-12T02:04:45.984Z,27.0300
2022-08-12T02:04:57.051Z,27.0300
2022-08-12T02:05:08.125Z,27.0300
2022-08-12T02:05:19.336Z,27.0200
2022-08-12T02:05:30.414Z,27.0200
2022-08-12T02:05:44.267Z,27.0300
2022-08-12T02:05:55.313Z,27.0100
2022-08-12T02:06:06.385Z,27.0200
2022-08-12T02:06:17.431Z,27.0200
2022-08-12T02:06:28.532Z,27.0200
2022-08-12T02:06:39.577Z,27.0300
2022-08-12T02:06:50.855Z,27.0300
2022-08-12T02:07:01.947Z,27.0300
2022-08-12T02:07:13.001Z,27.0300
2022-08-12T02:07:24.065Z,27.0300
2022-08-12T02:07:35.143Z,27.0300
2022-08-12T02:07:46.228Z,27.0400
2022-08-12T02:07:57.285Z,27.0400
2022-08-12T02:08:08.362Z,27.0400
2022-08-12T02:08:19.435Z,27.0500
2022-08-12T02:08:30.482Z,27.0500
2022-08-12T02:08:41.543Z,27.0500
2022-08-12T02:08:52.738Z,27.0500
2022-08-12T02:09:03.794Z,27.0500
2022-08-12T02:09:14.863Z,27.0500
2022-08-12T02:09:26.088Z,27.0500
2022-08-12T02:09:37.176Z,27.0500
2022-08-12T02:09:48.228Z,27.0500
2022-08-12T02:09:59.296Z,27.0500
2022-08-12T02:10:10.335Z,27.0500
2022-08-12T02:10:49.365Z,27.0300
2022-08-12T02:10:50.693Z,27.0500
2022-08-12T02:11:01.222Z,27.0100
2022-08-12T02:11:12.303Z,26.9900
2022-08-12T02:11:23.361Z,27.0000
2022-08-12T02:11:34.473Z,27.0100
2022-08-12T02:11:45.551Z,27.0000
2022-08-12T02:11:56.757Z,27.0000
2022-08-12T02:12:09.935Z,27.0000
2022-08-12T02:12:24.730Z,26.9900
2022-08-12T02:12:38.034Z,27.0000
2022-08-12T02:12:49.082Z,26.9800
2022-08-12T02:13:00.444Z,26.9700
2022-08-12T02:13:11.510Z,26.9800
2022-08-12T02:13:43.662Z,26.9800
2022-08-12T02:13:48.543Z,26.9900
2022-08-12T02:13:56.527Z,26.9700
2022-08-12T02:14:07.588Z,26.9500
2022-08-12T02:14:18.670Z,26.9600
2022-08-12T02:14:29.867Z,26.9700
2022-08-12T02:14:40.934Z,26.9800
2022-08-12T02:14:52.007Z,26.9900
2022-08-12T02:15:03.049Z,26.9900
2022-08-12T02:15:14.117Z,26.9900
2022-08-12T02:15:25.170Z,26.9900
2022-08-12T02:15:36.247Z,26.9900
2022-08-12T02:15:47.320Z,26.9900
2022-08-12T02:15:58.408Z,27.0000
2022-08-12T02:16:09.499Z,27.0000
2022-08-12T02:16:20.569Z,27.0000
2022-08-12T02:16:31.907Z,27.0000
2022-08-12T02:16:42.996Z,26.9900
2022-08-12T02:16:54.048Z,26.9900
2022-08-12T02:17:05.109Z,26.9900
2022-08-12T02:17:16.175Z,27.0000
2022-08-12T02:17:54.582Z,27.0000
2022-08-12T02:17:55.580Z,26.9900
2022-08-12T02:18:01.156Z,26.9600
2022-08-12T02:18:12.231Z,26.9400
2022-08-12T02:18:23.298Z,26.9400
2022-08-12T02:18:34.361Z,26.9500
2022-08-12T02:18:45.429Z,26.9500
2022-08-12T02:18:56.488Z,26.9600
2022-08-12T02:19:22.022Z,26.9600
2022-08-12T02:19:24.529Z,26.9600
2022-08-12T02:19:35.597Z,26.9400
2022-08-12T02:19:46.673Z,26.9400
2022-08-12T02:19:57.757Z,26.9500
2022-08-12T02:20:08.822Z,26.9500
2022-08-12T02:20:20.023Z,26.9600
2022-08-12T02:20:35.208Z,26.9700
2022-08-12T02:20:51.981Z,26.9700
2022-08-12T02:21:03.860Z,26.9600
2022-08-12T02:21:14.924Z,26.9400
2022-08-12T02:21:25.999Z,26.9600
2022-08-12T02:21:37.070Z,26.9700
2022-08-12T02:21:48.186Z,26.9800
2022-08-12T02:21:59.278Z,26.9800
2022-08-12T02:22:10.300Z,26.9800
2022-08-12T02:22:21.680Z,26.9800